Time;durP1;ratioP1;P1;durP2;ratioP2;P2;SDS_P1;SDS_P2;PMS_P1;PMS_P2;Temp;Humidity;BMP_temperature;BMP_pressure;BME280_temperature;BME280_humidity;BME280_pressure;Samples;Min_cycle;Max_cycle;Signal;HPM_P1;HPM_P2
2023/04/14 00:01:35;;;;;;;4.37;2.70;;;;;;;5.81;100.00;99598.75;5031903;28;20194;-71
2023/04/14 00:04:00;;;;;;;4.47;2.30;;;;;;;5.78;100.00;99598.75;5039012;28;20219;-71
2023/04/14 00:06:26;;;;;;;5.00;2.60;;;;;;;5.76;100.00;99601.34;5031539;28;20250;-71
2023/04/14 00:08:52;;;;;;;4.53;2.53;;;;;;;5.75;100.00;99598.75;5034098;28;20233;-71
2023/04/14 00:11:17;;;;;;;5.17;2.60;;;;;;;5.72;100.00;99598.78;5025577;28;20200;-71
2023/04/14 00:13:43;;;;;;;2.57;1.93;;;;;;;5.72;100.00;99593.66;5028214;28;20190;-71
2023/04/14 00:16:11;;;;;;;3.43;2.13;;;;;;;5.75;100.00;99599.63;5032217;28;20587;-71
2023/04/14 00:18:36;;;;;;;4.90;2.33;;;;;;;5.77;100.00;99603.06;5041186;28;20998;-72
2023/04/14 00:21:02;;;;;;;3.53;2.00;;;;;;;5.79;100.00;99603.91;5032975;28;20248;-71
2023/04/14 00:23:27;;;;;;;4.10;2.30;;;;;;;5.82;100.00;99603.03;5031379;28;20193;-71
2023/04/14 00:25:52;;;;;;;3.97;2.33;;;;;;;5.83;100.00;99598.75;5041771;28;20218;-71
2023/04/14 00:28:18;;;;;;;3.20;2.00;;;;;;;5.83;100.00;99586.78;5043181;28;20210;-72
2023/04/14 00:30:43;;;;;;;3.70;2.00;;;;;;;5.83;100.00;99586.78;5031291;28;20215;-70
2023/04/14 00:33:08;;;;;;;3.27;2.03;;;;;;;5.81;100.00;99585.94;5028999;28;20259;-71
2023/04/14 00:35:35;;;;;;;5.27;2.20;;;;;;;5.77;100.00;99574.81;5030516;28;20290;-73
2023/04/14 00:38:00;;;;;;;4.13;2.40;;;;;;;5.74;100.00;99582.50;5038605;28;20697;-72
2023/04/14 00:40:25;;;;;;;6.37;2.50;;;;;;;5.71;100.00;99579.94;5035280;28;20189;-71
2023/04/14 00:42:51;;;;;;;6.63;2.73;;;;;;;5.69;100.00;99573.94;5029697;28;20192;-72
2023/04/14 00:45:16;;;;;;;4.60;2.57;;;;;;;5.67;100.00;99577.38;5037183;28;20235;-73
2023/04/14 00:47:46;;;;;;;4.80;2.30;;;;;;;5.61;100.00;99579.09;5026562;28;20565;-72
2023/04/14 00:50:16;;;;;;;3.83;2.30;;;;;;;5.55;100.00;99576.53;5032585;28;20769;-72
2023/04/14 00:52:44;;;;;;;3.43;2.30;;;;;;;5.49;100.00;99577.38;5035044;28;20192;-72
2023/04/14 00:55:10;;;;;;;3.13;1.90;;;;;;;5.48;100.00;99578.25;5035566;28;20246;-71
2023/04/14 00:57:36;;;;;;;5.60;2.57;;;;;;;5.46;100.00;99579.06;5034577;28;20187;-71
2023/04/14 01:00:04;;;;;;;3.53;1.97;;;;;;;5.44;100.00;99584.22;5031777;28;20197;-72
2023/04/14 01:02:30;;;;;;;3.27;2.13;;;;;;;5.40;100.00;99571.41;5034126;28;20197;-71
2023/04/14 01:04:55;;;;;;;3.33;2.27;;;;;;;5.34;100.00;99580.78;5037040;28;20298;-71
2023/04/14 01:07:22;;;;;;;4.83;2.50;;;;;;;5.31;100.00;99590.19;5030980;28;20222;-72
2023/04/14 01:09:49;;;;;;;3.77;2.07;;;;;;;5.27;100.00;99591.03;5038661;28;20713;-71
2023/04/14 01:12:33;;;;;;;3.47;2.10;;;;;;;5.21;100.00;99586.75;5034371;28;20200;-71
2023/04/14 01:15:09;;;;;;;5.17;2.33;;;;;;;5.17;100.00;99591.03;5032220;28;20243;-71
2023/04/14 01:18:12;;;;;;;2.73;1.87;;;;;;;5.12;100.00;99591.88;5037741;28;20258;-71
2023/04/14 01:20:43;;;;;;;4.10;2.00;;;;;;;5.06;100.00;99589.28;5007006;28;22370;-71
2023/04/14 01:23:20;;;;;;;4.63;2.07;;;;;;;5.02;100.00;99598.69;5030922;28;20296;-70
2023/04/14 01:26:07;;;;;;;4.60;2.00;;;;;;;5.02;100.00;99593.56;5030056;28;20202;-72
2023/04/14 01:28:50;;;;;;;3.30;2.23;;;;;;;5.02;100.00;99603.81;5033721;28;20224;-73
2023/04/14 01:31:34;;;;;;;3.57;2.00;;;;;;;5.01;100.00;99599.53;5030646;28;21035;-73
2023/04/14 01:34:11;;;;;;;5.10;1.90;;;;;;;5.00;100.00;99608.94;5037129;28;20187;-71
2023/04/14 01:36:41;;;;;;;2.73;1.67;;;;;;;4.98;100.00;99608.09;5036545;28;20190;-73
2023/04/14 01:39:10;;;;;;;2.97;1.73;;;;;;;4.97;100.00;99610.63;5037354;28;20194;-71
2023/04/14 01:41:41;;;;;;;4.30;2.17;;;;;;;4.96;100.00;99614.06;5043405;28;20274;-71
2023/04/14 01:44:09;;;;;;;3.83;1.87;;;;;;;4.95;100.00;99620.91;5037880;28;20278;-72
2023/04/14 01:46:35;;;;;;;5.00;2.03;;;;;;;4.93;100.00;99616.59;5042801;28;20195;-74
2023/04/14 01:49:01;;;;;;;3.10;2.23;;;;;;;4.92;100.00;99618.31;5052454;28;20212;-71
2023/04/14 01:51:28;;;;;;;5.50;2.40;;;;;;;4.93;100.00;99619.16;5039565;28;20191;-71
2023/04/14 01:53:56;;;;;;;3.57;2.17;;;;;;;4.93;100.00;99622.59;5032139;28;20682;-72
2023/04/14 01:56:23;;;;;;;3.03;1.90;;;;;;;4.87;100.00;99620.88;5032191;28;20211;-71
2023/04/14 01:58:50;;;;;;;4.30;2.13;;;;;;;4.85;100.00;99622.56;5036883;28;20178;-71
2023/04/14 02:01:16;;;;;;;3.70;2.13;;;;;;;4.84;100.00;99631.13;5033749;28;20679;-70
2023/04/14 02:03:42;;;;;;;3.30;2.47;;;;;;;4.78;100.00;99631.06;5036854;28;20674;-71
2023/04/14 02:06:11;;;;;;;6.23;2.40;;;;;;;4.75;100.00;99635.34;5033128;28;20219;-73
2023/04/14 02:08:40;;;;;;;4.60;2.20;;;;;;;4.67;100.00;99635.31;5035714;28;20923;-71
2023/04/14 02:11:08;;;;;;;4.27;2.70;;;;;;;4.63;100.00;99642.13;5032483;28;20317;-71
2023/04/14 02:13:36;;;;;;;4.73;2.57;;;;;;;4.58;100.00;99646.38;5037673;28;20664;-71
2023/04/14 02:16:02;;;;;;;5.50;2.87;;;;;;;4.54;100.00;99647.19;5031999;28;20196;-73
2023/04/14 02:18:30;;;;;;;3.77;2.40;;;;;;;4.51;100.00;99648.03;5037790;28;22673;-72
2023/04/14 02:20:58;;;;;;;5.60;2.70;;;;;;;4.47;100.00;99650.59;5035304;28;20223;-71
2023/04/14 02:23:23;;;;;;;3.77;2.70;;;;;;;4.43;100.00;99654.84;5033374;28;20197;-74
2023/04/14 02:25:54;;;;;;;3.87;2.47;;;;;;;4.39;100.00;99656.50;5034571;28;20195;-71
2023/04/14 02:28:26;;;;;;;4.70;2.47;;;;;;;4.35;100.00;99652.25;5029508;28;20292;-71
2023/04/14 02:30:55;;;;;;;4.63;2.67;;;;;;;4.32;100.00;99653.91;5042174;28;20187;-71
2023/04/14 02:33:26;;;;;;;4.83;2.60;;;;;;;4.28;100.00;99660.72;5032858;28;20642;-71
2023/04/14 02:36:01;;;;;;;4.47;2.10;;;;;;;4.26;100.00;99672.66;5031125;28;20202;-72
2023/04/14 02:38:36;;;;;;;4.03;2.17;;;;;;;4.24;100.00;99664.09;5026323;28;20213;-73
2023/04/14 02:41:07;;;;;;;3.70;2.50;;;;;;;4.26;100.00;99675.22;5025546;28;20194;-72
2023/04/14 02:43:40;;;;;;;3.00;2.07;;;;;;;4.31;100.00;99672.72;5037119;28;20182;-71
2023/04/14 02:46:08;;;;;;;4.70;2.73;;;;;;;4.34;100.00;99676.13;5032552;28;20961;-71
2023/04/14 02:48:35;;;;;;;2.33;2.03;;;;;;;4.37;100.00;99676.16;5037806;28;20210;-71
2023/04/14 02:51:02;;;;;;;2.80;1.90;;;;;;;4.39;100.00;99681.28;5026001;28;20180;-70
2023/04/14 02:53:28;;;;;;;3.43;2.10;;;;;;;4.38;100.00;99672.75;5031679;28;20193;-71
2023/04/14 02:55:54;;;;;;;5.17;2.40;;;;;;;4.38;100.00;99680.44;5034215;28;20284;-72
2023/04/14 02:58:20;;;;;;;2.53;1.90;;;;;;;4.38;100.00;99669.31;5035132;28;20291;-70
2023/04/14 03:00:46;;;;;;;3.30;2.10;;;;;;;4.36;100.00;99671.88;5029504;28;20174;-71
2023/04/14 03:03:12;;;;;;;3.37;2.53;;;;;;;4.34;100.00;99673.59;5035616;28;20304;-73
2023/04/14 03:05:40;;;;;;;3.27;2.23;;;;;;;4.34;100.00;99672.72;5036096;28;20218;-73
2023/04/14 03:08:07;;;;;;;3.07;2.20;;;;;;;4.31;100.00;99676.13;5030794;28;20226;-71
2023/04/14 03:10:33;;;;;;;3.70;2.10;;;;;;;4.26;100.00;99670.97;5039523;28;20479;-71
2023/04/14 03:13:00;;;;;;;3.40;2.10;;;;;;;4.27;100.00;99675.25;5030588;28;20239;-71
2023/04/14 03:15:27;;;;;;;4.40;2.60;;;;;;;4.24;100.00;99671.78;5031102;28;20219;-73
2023/04/14 03:17:56;;;;;;;3.20;2.23;;;;;;;4.23;100.00;99665.81;5029374;28;20237;-71
2023/04/14 03:20:22;;;;;;;4.33;2.10;;;;;;;4.24;100.00;99675.22;5028189;28;20195;-74
2023/04/14 03:23:00;;;;;;;3.80;2.27;;;;;;;4.23;100.00;99672.66;5031300;28;20182;-72
2023/04/14 03:25:27;;;;;;;4.53;2.37;;;;;;;4.21;100.00;99672.63;5041327;28;20209;-71
2023/04/14 03:27:57;;;;;;;4.60;2.37;;;;;;;4.22;100.00;99684.59;5031296;28;20210;-70
2023/04/14 03:30:24;;;;;;;2.70;2.03;;;;;;;4.21;100.00;99680.31;5045532;28;20221;-72
2023/04/14 03:32:52;;;;;;;2.53;1.90;;;;;;;4.21;100.00;99685.44;5034537;28;20680;-71
2023/04/14 03:35:21;;;;;;;2.90;2.13;;;;;;;4.21;100.00;99680.31;5031450;28;20294;-72
2023/04/14 03:37:48;;;;;;;3.43;2.13;;;;;;;4.20;100.00;99680.31;5049794;28;20187;-70
2023/04/14 03:40:15;;;;;;;3.23;2.00;;;;;;;4.16;100.00;99669.16;5030215;28;20675;-72
2023/04/14 03:42:43;;;;;;;4.43;3.73;;;;;;;4.14;100.00;99670.00;5029769;28;20209;-71
2023/04/14 03:45:09;;;;;;;7.83;7.03;;;;;;;4.15;100.00;99676.84;5035028;28;20212;-71
2023/04/14 03:47:35;;;;;;;6.93;6.30;;;;;;;4.15;100.00;99674.28;5034378;28;20553;-71
2023/04/14 03:50:03;;;;;;;5.80;5.17;;;;;;;4.16;100.00;99671.72;5032971;28;20202;-71
2023/04/14 03:52:32;;;;;;;5.50;4.30;;;;;;;4.16;100.00;99674.28;5033896;28;20185;-71
2023/04/14 03:55:02;;;;;;;4.23;3.23;;;;;;;4.17;100.00;99676.00;5029962;28;20210;-70
2023/04/14 03:57:30;;;;;;;3.77;2.80;;;;;;;4.17;100.00;99683.69;5041645;28;20192;-71
2023/04/14 03:59:57;;;;;;;4.67;2.70;;;;;;;4.14;100.00;99677.69;5040028;28;20269;-71
2023/04/14 04:02:24;;;;;;;3.40;3.10;;;;;;;4.10;100.00;99679.38;5045306;28;20191;-73
2023/04/14 04:04:50;;;;;;;4.43;2.50;;;;;;;4.06;100.00;99675.06;5033094;28;20788;-71
2023/04/14 04:07:18;;;;;;;4.40;2.60;;;;;;;4.04;100.00;99685.31;5033672;28;20218;-71
2023/04/14 04:09:46;;;;;;;4.17;2.37;;;;;;;4.00;100.00;99687.84;5052360;28;20196;-71
2023/04/14 04:12:15;;;;;;;3.83;2.40;;;;;;;3.95;100.00;99682.66;5028336;28;20215;-72
2023/04/14 04:14:40;;;;;;;3.57;2.77;;;;;;;3.92;100.00;99680.94;5040425;28;20725;-74
2023/04/14 04:17:07;;;;;;;4.13;2.80;;;;;;;3.90;100.00;99682.63;5032546;28;20191;-73
2023/04/14 04:19:35;;;;;;;3.33;2.50;;;;;;;3.88;100.00;99678.34;5035597;28;20248;-73
2023/04/14 04:22:02;;;;;;;5.00;2.83;;;;;;;3.85;100.00;99683.44;5051326;28;20183;-73
2023/04/14 04:24:35;;;;;;;4.80;2.30;;;;;;;3.83;100.00;99685.13;5047002;28;20206;-72
2023/04/14 04:27:00;;;;;;;3.03;2.27;;;;;;;3.77;100.00;99686.81;5042440;28;20674;-72
2023/04/14 04:29:26;;;;;;;3.90;2.50;;;;;;;3.75;100.00;99693.59;5040912;28;20230;-73
2023/04/14 04:31:51;;;;;;;4.00;2.20;;;;;;;3.72;100.00;99690.13;5039402;28;20218;-72
2023/04/14 04:34:19;;;;;;;3.63;2.40;;;;;;;3.69;100.00;99695.25;5042707;28;20183;-73
2023/04/14 04:36:45;;;;;;;4.07;2.50;;;;;;;3.66;100.00;99691.81;5031910;28;20201;-73
2023/04/14 04:39:11;;;;;;;5.43;3.00;;;;;;;3.66;100.00;99689.25;5034593;28;20183;-73
2023/04/14 04:41:36;;;;;;;3.83;2.60;;;;;;;3.70;100.00;99697.81;5037811;28;20658;-75
2023/04/14 04:44:01;;;;;;;4.07;2.20;;;;;;;3.69;100.00;99693.53;5028228;28;20916;-71
2023/04/14 04:46:51;;;;;;;4.63;2.47;;;;;;;3.69;100.00;99698.66;5045611;28;20211;-71
2023/04/14 04:49:17;;;;;;;4.00;2.53;;;;;;;3.70;100.00;99709.78;5044552;28;20393;-71
2023/04/14 04:51:43;;;;;;;2.70;2.10;;;;;;;3.70;100.00;99692.69;5037200;28;20301;-71
2023/04/14 04:54:08;;;;;;;3.17;2.00;;;;;;;3.71;100.00;99696.09;5036423;28;20307;-70
2023/04/14 04:56:33;;;;;;;5.87;2.50;;;;;;;3.72;100.00;99698.69;5049403;28;20199;-72
2023/04/14 04:58:59;;;;;;;3.53;1.93;;;;;;;3.73;100.00;99695.28;5028100;28;20627;-71
2023/04/14 05:01:24;;;;;;;4.17;2.23;;;;;;;3.75;100.00;99700.41;5028550;28;20209;-71
2023/04/14 05:03:49;;;;;;;3.00;1.90;;;;;;;3.75;100.00;99696.16;5027363;28;20970;-71
2023/04/14 05:06:15;;;;;;;3.87;2.20;;;;;;;3.79;100.00;99697.03;5034637;28;20290;-71
2023/04/14 05:08:41;;;;;;;3.77;2.47;;;;;;;3.84;100.00;99703.06;5035542;28;20211;-71
2023/04/14 05:11:07;;;;;;;5.30;2.17;;;;;;;3.94;100.00;99698.88;5030788;28;21166;-72
2023/04/14 05:13:32;;;;;;;4.27;2.33;;;;;;;4.17;100.00;99703.34;5029331;28;20214;-71
2023/04/14 05:16:07;;;;;;;4.53;2.10;;;;;;;4.55;100.00;99715.53;5031060;28;20205;-71
2023/04/14 05:18:33;;;;;;;3.57;2.03;;;;;;;4.83;100.00;99710.59;5033941;28;20208;-71
2023/04/14 05:21:10;;;;;;;4.77;2.10;;;;;;;5.00;100.00;99715.81;5026209;28;20184;-70
2023/04/14 05:23:37;;;;;;;2.97;2.03;;;;;;;5.12;100.00;99709.88;5034749;28;20213;-73
2023/04/14 05:26:03;;;;;;;4.50;2.20;;;;;;;5.44;100.00;99711.69;5023734;28;20781;-72
2023/04/14 05:28:29;;;;;;;3.13;1.97;;;;;;;5.65;100.00;99714.28;5037293;28;20203;-70
2023/04/14 05:30:55;;;;;;;3.60;2.13;;;;;;;5.74;100.00;99721.16;5033849;28;20184;-71
2023/04/14 05:33:21;;;;;;;7.50;3.13;;;;;;;5.81;100.00;99716.88;5029853;28;20229;-73
2023/04/14 05:35:46;;;;;;;4.97;2.60;;;;;;;5.87;100.00;99716.03;5030820;28;20354;-73
2023/04/14 05:38:12;;;;;;;3.80;2.37;;;;;;;6.01;99.94;99711.78;5033802;28;20233;-72
2023/04/14 05:40:38;;;;;;;4.43;2.53;;;;;;;6.48;98.88;99714.34;5028253;28;20999;-71
2023/04/14 05:43:04;;;;;;;4.00;2.20;;;;;;;7.26;96.44;99702.97;5036260;28;20184;-71
2023/04/14 05:45:30;;;;;;;4.93;2.30;;;;;;;7.89;94.23;99708.59;5037825;28;20263;-71
2023/04/14 05:47:55;;;;;;;5.30;2.50;;;;;;;8.51;92.32;99702.94;5036666;28;20243;-71
2023/04/14 05:50:21;;;;;;;5.63;2.73;;;;;;;9.39;89.70;99708.78;5032135;28;20181;-72
2023/04/14 05:52:47;;;;;;;2.87;2.20;;;;;;;10.14;86.70;99714.56;5041054;28;20191;-73
2023/04/14 05:55:12;;;;;;;3.50;2.47;;;;;;;10.54;84.65;99714.81;5034126;28;20247;-71
2023/04/14 05:57:38;;;;;;;6.20;3.90;;;;;;;10.71;83.71;99714.50;5050132;28;20177;-70
2023/04/14 06:00:05;;;;;;;25.77;15.13;;;;;;;11.12;82.63;99705.94;5041414;28;20952;-71
2023/04/14 06:02:30;;;;;;;21.70;12.83;;;;;;;11.66;81.15;99710.84;5041467;28;20191;-71
2023/04/14 06:04:56;;;;;;;26.60;13.50;;;;;;;12.23;79.47;99706.94;5024521;28;20327;-72
2023/04/14 06:07:21;;;;;;;30.20;14.10;;;;;;;12.74;78.12;99703.00;5044701;28;20214;-72
2023/04/14 06:09:46;;;;;;;31.33;16.00;;;;;;;13.09;77.09;99705.50;5061089;28;20218;-72
2023/04/14 06:12:13;;;;;;;29.10;14.90;;;;;;;13.34;76.17;99713.44;5036261;28;20690;-71
2023/04/14 06:14:38;;;;;;;27.43;12.60;;;;;;;13.68;75.62;99711.56;5035195;28;20690;-72
2023/04/14 06:17:03;;;;;;;19.53;9.13;;;;;;;14.23;74.01;99710.69;5039765;28;20307;-72
2023/04/14 06:19:29;;;;;;;15.87;7.37;;;;;;;14.74;72.17;99709.00;5035477;28;20219;-74
2023/04/14 06:21:54;;;;;;;13.87;6.00;;;;;;;15.19;71.37;99710.84;5030947;28;20188;-70
2023/04/14 06:24:19;;;;;;;8.57;4.90;;;;;;;15.51;69.54;99719.16;5034582;28;20251;-73
2023/04/14 06:26:45;;;;;;;7.17;4.43;;;;;;;15.72;68.40;99710.59;5027130;28;20329;-71
2023/04/14 06:29:10;;;;;;;5.83;4.50;;;;;;;15.79;67.19;99714.63;5033293;28;20213;-71
2023/04/14 06:31:36;;;;;;;7.40;4.40;;;;;;;15.78;66.88;99705.09;5030285;28;20307;-74
2023/04/14 06:34:01;;;;;;;7.40;5.10;;;;;;;15.84;66.45;99710.94;5034757;28;20198;-71
2023/04/14 06:36:27;;;;;;;7.90;5.63;;;;;;;15.79;66.37;99702.47;5026807;28;20345;-74
2023/04/14 06:38:53;;;;;;;8.50;6.07;;;;;;;15.80;66.06;99709.38;5031538;28;20192;-71
2023/04/14 06:41:18;;;;;;;9.80;5.57;;;;;;;15.80;66.23;99705.91;5034316;28;20188;-74
2023/04/14 06:43:44;;;;;;;5.40;4.50;;;;;;;15.80;65.98;99700.69;5031146;28;20190;-74
2023/04/14 06:46:09;;;;;;;5.13;2.93;;;;;;;15.81;65.60;99700.59;5032212;28;20218;-73
2023/04/14 06:48:34;;;;;;;6.23;3.43;;;;;;;15.74;65.78;99708.75;5029217;28;20222;-75
2023/04/14 06:51:00;;;;;;;4.10;2.97;;;;;;;15.84;66.33;99700.50;5024345;28;20191;-73
2023/04/14 06:53:25;;;;;;;5.67;3.67;;;;;;;15.88;66.34;99701.28;5044676;28;20197;-73
2023/04/14 06:55:57;;;;;;;3.90;3.30;;;;;;;15.95;66.12;99705.31;5033238;28;20218;-73
2023/04/14 06:58:24;;;;;;;5.33;3.50;;;;;;;15.89;66.48;99700.34;5040912;28;20232;-74
2023/04/14 07:00:57;;;;;;;8.87;6.00;;;;;;;15.82;66.96;99699.69;5033020;28;20225;-73
2023/04/14 07:03:23;;;;;;;9.30;8.30;;;;;;;15.81;67.05;99699.78;5040141;28;20193;-70
2023/04/14 07:05:48;;;;;;;16.27;14.27;;;;;;;15.81;67.17;99697.16;5042381;28;20204;-75
2023/04/14 07:08:13;;;;;;;11.93;8.10;;;;;;;15.84;67.78;99695.28;5030216;28;20224;-71
2023/04/14 07:10:39;;;;;;;8.30;6.10;;;;;;;15.75;67.93;99690.44;5036237;28;20213;-75
2023/04/14 07:13:04;;;;;;;8.37;5.97;;;;;;;15.65;68.30;99683.91;5040040;28;20939;-71
2023/04/14 07:15:30;;;;;;;7.37;6.20;;;;;;;15.52;68.73;99681.75;5035065;28;20969;-73
2023/04/14 07:17:55;;;;;;;7.57;5.40;;;;;;;15.35;69.04;99678.97;5037246;28;20180;-72
2023/04/14 07:20:21;;;;;;;5.50;3.83;;;;;;;15.12;69.42;99680.69;5032749;28;20288;-74
2023/04/14 07:22:46;;;;;;;6.63;4.43;;;;;;;14.87;69.97;99671.19;5035938;28;20269;-72
2023/04/14 07:25:11;;;;;;;7.07;4.80;;;;;;;14.68;70.97;99670.16;5032353;28;20631;-72
2023/04/14 07:27:37;;;;;;;6.87;4.30;;;;;;;14.50;71.93;99671.63;5045543;28;20197;-76
2023/04/14 07:30:02;;;;;;;5.67;3.77;;;;;;;14.35;72.36;99671.25;5075461;28;20184;-73
2023/04/14 07:32:28;;;;;;;10.07;7.40;;;;;;;14.25;73.00;99667.25;5046796;28;20561;-71
2023/04/14 07:34:53;;;;;;;9.03;7.23;;;;;;;14.22;73.69;99663.00;5035325;28;20219;-71
2023/04/14 07:37:19;;;;;;;7.23;5.70;;;;;;;14.16;74.18;99660.59;5054998;28;20194;-71
2023/04/14 07:39:45;;;;;;;7.53;4.53;;;;;;;14.07;74.75;99660.94;5041051;28;20184;-71
2023/04/14 07:42:11;;;;;;;7.83;5.83;;;;;;;13.97;75.15;99658.63;5033302;28;20254;-72
2023/04/14 07:44:37;;;;;;;7.23;4.53;;;;;;;13.90;75.26;99654.53;5036812;28;20203;-71
2023/04/14 07:47:02;;;;;;;5.37;3.60;;;;;;;13.80;75.34;99653.97;5039887;28;20208;-72
2023/04/14 07:49:28;;;;;;;5.07;4.17;;;;;;;13.72;75.69;99655.97;5032840;28;20570;-72
2023/04/14 07:51:53;;;;;;;4.87;4.23;;;;;;;13.62;76.02;99650.22;5034123;28;20188;-72
2023/04/14 07:54:18;;;;;;;6.87;4.40;;;;;;;13.53;76.04;99651.38;5036189;28;20606;-72
2023/04/14 07:56:44;;;;;;;6.00;3.97;;;;;;;13.40;76.43;99648.28;5029939;28;20236;-71
2023/04/14 07:59:10;;;;;;;5.97;4.27;;;;;;;13.30;76.46;99651.22;5040524;28;20632;-71
2023/04/14 08:01:35;;;;;;;5.47;3.67;;;;;;;13.22;76.35;99656.63;5046580;28;20206;-72
2023/04/14 08:04:00;;;;;;;6.90;5.20;;;;;;;13.14;76.94;99645.59;5055973;28;20182;-74
2023/04/14 08:06:27;;;;;;;6.37;3.03;;;;;;;13.04;77.22;99645.88;5041335;28;20291;-74
2023/04/14 08:08:52;;;;;;;8.17;3.23;;;;;;;12.94;77.55;99652.22;5027351;28;20832;-72
2023/04/14 08:11:17;;;;;;;4.90;2.87;;;;;;;12.83;77.80;99656.88;5031362;28;20247;-72
2023/04/14 08:13:43;;;;;;;5.90;2.80;;;;;;;12.71;78.14;99650.28;5032362;28;20668;-72
2023/04/14 08:16:08;;;;;;;5.33;2.67;;;;;;;12.59;78.99;99652.34;5041117;28;20237;-71
2023/04/14 08:18:35;;;;;;;5.20;2.80;;;;;;;12.51;79.33;99651.72;5029390;28;20695;-72
2023/04/14 08:21:01;;;;;;;5.47;3.00;;;;;;;12.43;80.09;99657.09;5031503;28;20185;-71
2023/04/14 08:23:26;;;;;;;5.90;2.90;;;;;;;12.41;80.28;99660.59;5028691;28;20866;-73
2023/04/14 08:25:51;;;;;;;5.83;3.40;;;;;;;12.39;80.55;99654.63;5026920;28;20682;-74
2023/04/14 08:28:17;;;;;;;5.47;2.90;;;;;;;12.39;80.87;99659.81;5039544;28;20575;-72
2023/04/14 08:30:42;;;;;;;4.77;3.20;;;;;;;12.40;80.97;99658.94;5033612;28;20184;-71
2023/04/14 08:33:07;;;;;;;6.07;3.80;;;;;;;12.38;80.63;99661.56;5033663;28;20194;-72
2023/04/14 08:35:34;;;;;;;5.87;2.97;;;;;;;12.39;80.18;99657.22;5039226;28;20682;-71
2023/04/14 08:38:00;;;;;;;4.53;2.63;;;;;;;12.39;80.05;99662.41;5037036;28;20208;-72
2023/04/14 08:40:34;;;;;;;4.27;2.70;;;;;;;12.40;79.46;99656.34;5038128;28;20207;-72
2023/04/14 08:43:00;;;;;;;5.73;2.80;;;;;;;12.42;79.06;99660.59;5033316;28;20598;-73
2023/04/14 08:45:26;;;;;;;6.00;2.73;;;;;;;12.42;78.88;99654.53;5036701;28;20219;-72
2023/04/14 08:47:54;;;;;;;5.60;2.97;;;;;;;12.46;78.79;99659.63;5030016;28;20259;-70
2023/04/14 08:50:24;;;;;;;5.63;2.83;;;;;;;12.48;78.76;99651.78;5035322;28;20222;-72
2023/04/14 08:52:54;;;;;;;4.10;2.30;;;;;;;12.55;79.00;99650.75;5034185;28;20188;-71
2023/04/14 08:55:20;;;;;;;6.03;2.37;;;;;;;12.62;78.70;99643.63;5037852;28;20227;-71
2023/04/14 08:57:47;;;;;;;3.43;2.40;;;;;;;12.66;78.53;99647.81;5036952;28;20190;-72
2023/04/14 09:00:14;;;;;;;5.10;2.47;;;;;;;12.66;76.47;99647.81;5033092;28;20195;-72
2023/04/14 09:02:40;;;;;;;4.97;2.60;;;;;;;12.67;76.13;99640.91;5035061;28;20200;-71
2023/04/14 09:05:06;;;;;;;3.57;2.07;;;;;;;12.70;77.04;99641.66;5031284;28;20217;-71
2023/04/14 09:07:32;;;;;;;3.23;1.83;;;;;;;12.75;77.22;99646.72;5037785;28;20220;-72
2023/04/14 09:09:58;;;;;;;3.87;2.17;;;;;;;12.81;77.20;99638.75;5035846;28;20194;-71
2023/04/14 09:12:26;;;;;;;3.93;2.00;;;;;;;12.85;76.50;99642.97;5039123;28;20662;-72
2023/04/14 09:14:52;;;;;;;5.53;2.27;;;;;;;12.84;74.73;99630.03;5039665;28;20204;-73
2023/04/14 09:17:19;;;;;;;3.00;1.60;;;;;;;12.87;75.43;99630.78;5035390;28;20550;-71
2023/04/14 09:19:44;;;;;;;4.77;1.90;;;;;;;12.94;75.30;99637.50;5034750;28;20190;-72
2023/04/14 09:22:10;;;;;;;3.13;1.90;;;;;;;12.98;74.99;99625.28;5037351;28;20200;-73
2023/04/14 09:24:36;;;;;;;3.63;1.90;;;;;;;13.03;74.92;99626.00;5033058;28;20208;-73
2023/04/14 09:27:04;;;;;;;3.47;1.70;;;;;;;13.07;73.98;99621.56;5031515;28;20207;-72
2023/04/14 09:29:29;;;;;;;3.33;2.00;;;;;;;13.09;73.33;99615.41;5022520;28;20286;-72
2023/04/14 09:31:55;;;;;;;7.07;2.63;;;;;;;13.07;71.97;99619.81;5028696;28;20185;-72
2023/04/14 09:34:20;;;;;;;4.23;2.27;;;;;;;13.03;71.99;99615.59;5027924;28;20890;-74
2023/04/14 09:37:12;;;;;;;2.67;1.70;;;;;;;13.08;72.70;99624.09;5029476;28;20312;-72
2023/04/14 09:39:47;;;;;;;2.33;1.83;;;;;;;13.20;73.05;99619.44;5037069;28;20203;-72
2023/04/14 09:42:12;;;;;;;3.60;1.67;;;;;;;13.32;73.30;99628.59;5048093;28;20186;-71
2023/04/14 09:44:52;;;;;;;4.50;2.10;;;;;;;13.44;73.02;99611.81;5036440;28;20215;-72
2023/04/14 09:47:19;;;;;;;3.27;1.57;;;;;;;13.50;72.68;99607.25;5059016;28;20208;-72
2023/04/14 09:49:56;;;;;;;4.53;1.93;;;;;;;13.56;71.51;99616.59;5045031;28;20183;-72
2023/04/14 09:52:22;;;;;;;2.83;1.70;;;;;;;13.59;72.32;99613.91;5031788;28;20298;-74
2023/04/14 09:54:53;;;;;;;2.90;1.93;;;;;;;13.67;72.42;99603.28;5038119;28;20308;-72
2023/04/14 09:57:25;;;;;;;2.83;1.50;;;;;;;13.69;71.42;99602.31;5035851;28;20232;-72
2023/04/14 09:59:50;;;;;;;3.00;1.60;;;;;;;13.71;71.16;99610.06;5032674;28;20194;-72
2023/04/14 10:02:16;;;;;;;4.93;2.00;;;;;;;13.67;70.35;99608.47;5033358;28;20198;-73
2023/04/14 10:04:41;;;;;;;4.30;2.10;;;;;;;13.65;68.33;99611.13;5035868;28;20223;-72
2023/04/14 10:07:07;;;;;;;2.00;1.40;;;;;;;13.42;67.42;99601.47;5034436;28;20198;-71
2023/04/14 10:09:36;;;;;;;2.33;1.57;;;;;;;13.30;67.22;99607.03;5033541;28;20213;-72
2023/04/14 10:12:12;;;;;;;3.37;1.70;;;;;;;13.31;67.93;99606.13;5033053;28;20244;-71
2023/04/14 10:14:42;;;;;;;2.50;1.40;;;;;;;13.41;68.64;99600.59;5032027;28;20229;-72
2023/04/14 10:17:07;;;;;;;2.43;1.63;;;;;;;13.55;68.45;99594.97;5032289;28;20182;-73
2023/04/14 10:19:35;;;;;;;3.17;1.77;;;;;;;13.70;68.37;99591.00;5049624;28;20590;-71
2023/04/14 10:22:01;;;;;;;1.93;1.50;;;;;;;13.83;68.46;99596.66;5027913;28;20205;-71
2023/04/14 10:24:27;;;;;;;3.70;1.50;;;;;;;13.99;68.39;99588.34;5037559;28;20860;-73
2023/04/14 10:26:52;;;;;;;3.43;1.67;;;;;;;14.15;68.73;99594.72;5027573;28;20193;-71
2023/04/14 10:29:18;;;;;;;3.43;1.70;;;;;;;14.32;68.33;99588.91;5034181;28;20600;-71
2023/04/14 10:31:53;;;;;;;2.10;1.30;;;;;;;14.51;67.70;99590.00;5037488;28;20190;-71
2023/04/14 10:34:20;;;;;;;3.03;1.40;;;;;;;14.72;67.87;99591.00;5030132;28;20303;-71
2023/04/14 10:36:47;;;;;;;2.43;1.77;;;;;;;14.83;66.52;99578.41;5027980;28;20186;-73
2023/04/14 10:39:20;;;;;;;2.37;1.30;;;;;;;14.85;66.39;99583.56;5028590;28;20278;-70
2023/04/14 10:41:52;;;;;;;4.23;2.00;;;;;;;14.77;66.55;99583.84;5029890;28;20198;-72
2023/04/14 10:44:31;;;;;;;3.27;1.77;;;;;;;14.75;65.76;99578.72;5026565;28;20245;-71
2023/04/14 10:46:59;;;;;;;3.77;1.87;;;;;;;14.59;61.10;99573.22;5028394;28;20198;-71
2023/04/14 10:49:35;;;;;;;3.90;2.03;;;;;;;14.68;63.38;99566.81;5028990;28;20305;-72
2023/04/14 10:52:05;;;;;;;3.00;1.50;;;;;;;14.73;63.01;99564.88;5025202;28;20229;-72
2023/04/14 10:54:52;;;;;;;3.30;1.90;;;;;;;14.83;64.23;99569.75;5030783;28;20237;-72
2023/04/14 10:57:21;;;;;;;3.17;1.73;;;;;;;15.03;64.58;99555.97;5030555;28;20195;-71
2023/04/14 10:59:46;;;;;;;3.70;1.60;;;;;;;15.21;64.17;99554.38;5033499;28;20225;-71
2023/04/14 11:02:27;;;;;;;4.17;1.70;;;;;;;15.35;64.02;99556.44;5034083;28;20195;-72
2023/04/14 11:05:10;;;;;;;3.37;2.00;;;;;;;15.52;63.05;99542.72;5036149;28;20225;-72
2023/04/14 11:07:44;;;;;;;2.30;1.40;;;;;;;15.65;62.64;99535.22;5035876;28;20214;-70
2023/04/14 11:10:18;;;;;;;4.30;1.80;;;;;;;15.70;61.34;99534.13;5048733;28;20234;-71
2023/04/14 11:12:44;;;;;;;3.40;2.13;;;;;;;15.70;60.61;99526.28;5041013;28;20198;-71
2023/04/14 11:15:10;;;;;;;2.87;1.70;;;;;;;15.74;61.14;99526.13;5035441;28;20210;-72
2023/04/14 11:17:39;;;;;;;2.83;1.37;;;;;;;15.91;62.07;99521.06;5032383;28;20199;-71
2023/04/14 11:20:16;;;;;;;3.03;1.60;;;;;;;16.23;61.84;99524.03;5025358;28;20199;-71
2023/04/14 11:22:44;;;;;;;2.17;1.60;;;;;;;16.45;61.84;99518.69;5038202;28;20224;-71
2023/04/14 11:25:14;;;;;;;2.47;1.47;;;;;;;16.63;61.91;99517.94;5029811;28;20662;-71
2023/04/14 11:27:40;;;;;;;2.70;1.20;;;;;;;16.68;60.86;99521.16;5036066;28;20575;-75
2023/04/14 11:30:12;;;;;;;2.23;1.43;;;;;;;16.67;60.59;99512.50;5034950;28;20200;-76
2023/04/14 11:32:50;;;;;;;2.30;1.50;;;;;;;16.71;60.58;99510.56;5034135;28;20192;-72
2023/04/14 11:35:17;;;;;;;2.00;1.50;;;;;;;16.71;60.69;99510.56;5036494;28;20427;-74
2023/04/14 11:37:44;;;;;;;2.90;1.50;;;;;;;16.73;60.79;99504.34;5039438;28;20293;-73